sensor_id;sensor_type;location;lat;lon;timestamp;P1;durP1;ratioP1;P2;durP2;ratioP2
47545;SDS011;50104;52.002;4.688;2023-10-31T00:00:27;14.38;;;7.25;;
47545;SDS011;50104;52.002;4.688;2023-10-31T00:05:28;13.95;;;5.18;;
47545;SDS011;50104;52.002;4.688;2023-10-31T00:10:29;7.90;;;4.25;;
47545;SDS011;50104;52.002;4.688;2023-10-31T00:15:30;8.60;;;4.05;;
47545;SDS011;50104;52.002;4.688;2023-10-31T00:20:30;9.50;;;5.13;;
47545;SDS011;50104;52.002;4.688;2023-10-31T00:25:31;11.85;;;4.93;;
47545;SDS011;50104;52.002;4.688;2023-10-31T00:30:32;8.75;;;4.35;;
47545;SDS011;50104;52.002;4.688;2023-10-31T00:35:33;10.05;;;5.07;;
47545;SDS011;50104;52.002;4.688;2023-10-31T00:40:34;12.25;;;6.00;;
47545;SDS011;50104;52.002;4.688;2023-10-31T00:45:35;11.80;;;6.25;;
47545;SDS011;50104;52.002;4.688;2023-10-31T00:50:35;12.45;;;5.85;;
47545;SDS011;50104;52.002;4.688;2023-10-31T00:55:36;8.27;;;5.32;;
47545;SDS011;50104;52.002;4.688;2023-10-31T01:00:37;10.63;;;6.00;;
47545;SDS011;50104;52.002;4.688;2023-10-31T01:05:38;16.02;;;7.93;;
47545;SDS011;50104;52.002;4.688;2023-10-31T01:10:39;12.60;;;8.50;;
47545;SDS011;50104;52.002;4.688;2023-10-31T01:15:40;14.15;;;8.25;;
47545;SDS011;50104;52.002;4.688;2023-10-31T01:20:41;15.27;;;8.60;;
47545;SDS011;50104;52.002;4.688;2023-10-31T01:25:42;12.32;;;8.13;;
47545;SDS011;50104;52.002;4.688;2023-10-31T01:30:43;13.20;;;7.93;;
47545;SDS011;50104;52.002;4.688;2023-10-31T01:35:43;14.70;;;8.57;;
47545;SDS011;50104;52.002;4.688;2023-10-31T01:40:44;17.15;;;10.13;;
47545;SDS011;50104;52.002;4.688;2023-10-31T01:45:50;12.50;;;8.32;;
47545;SDS011;50104;52.002;4.688;2023-10-31T01:50:51;8.52;;;6.38;;
47545;SDS011;50104;52.002;4.688;2023-10-31T01:55:52;10.63;;;5.60;;
47545;SDS011;50104;52.002;4.688;2023-10-31T02:00:55;7.20;;;4.85;;
47545;SDS011;50104;52.002;4.688;2023-10-31T02:05:57;5.00;;;4.13;;
47545;SDS011;50104;52.002;4.688;2023-10-31T02:10:58;7.10;;;3.65;;
47545;SDS011;50104;52.002;4.688;2023-10-31T02:15:58;5.43;;;3.42;;
47545;SDS011;50104;52.002;4.688;2023-10-31T02:20:59;4.20;;;2.20;;
47545;SDS011;50104;52.002;4.688;2023-10-31T02:26:00;7.70;;;2.20;;
47545;SDS011;50104;52.002;4.688;2023-10-31T02:31:03;2.15;;;1.85;;
47545;SDS011;50104;52.002;4.688;2023-10-31T02:36:04;4.70;;;2.55;;
47545;SDS011;50104;52.002;4.688;2023-10-31T02:41:05;5.25;;;4.70;;
47545;SDS011;50104;52.002;4.688;2023-10-31T02:46:06;6.78;;;4.72;;
47545;SDS011;50104;52.002;4.688;2023-10-31T02:51:07;10.30;;;4.63;;
47545;SDS011;50104;52.002;4.688;2023-10-31T02:56:08;9.77;;;3.22;;
47545;SDS011;50104;52.002;4.688;2023-10-31T03:01:09;4.15;;;2.55;;
47545;SDS011;50104;52.002;4.688;2023-10-31T03:06:10;6.75;;;2.72;;
47545;SDS011;50104;52.002;4.688;2023-10-31T03:11:20;8.32;;;3.20;;
47545;SDS011;50104;52.002;4.688;2023-10-31T03:16:25;11.15;;;5.20;;
47545;SDS011;50104;52.002;4.688;2023-10-31T03:21:26;9.05;;;4.30;;
47545;SDS011;50104;52.002;4.688;2023-10-31T03:26:26;6.72;;;2.33;;
47545;SDS011;50104;52.002;4.688;2023-10-31T03:31:27;3.17;;;1.42;;
47545;SDS011;50104;52.002;4.688;2023-10-31T03:36:28;2.38;;;1.27;;
47545;SDS011;50104;52.002;4.688;2023-10-31T03:41:30;2.50;;;1.02;;
47545;SDS011;50104;52.002;4.688;2023-10-31T03:46:31;3.95;;;1.27;;
47545;SDS011;50104;52.002;4.688;2023-10-31T03:51:32;1.30;;;1.00;;
47545;SDS011;50104;52.002;4.688;2023-10-31T03:56:41;1.60;;;1.10;;
47545;SDS011;50104;52.002;4.688;2023-10-31T04:01:43;3.95;;;1.15;;
47545;SDS011;50104;52.002;4.688;2023-10-31T04:06:44;1.05;;;0.95;;
47545;SDS011;50104;52.002;4.688;2023-10-31T04:11:45;3.53;;;0.93;;
47545;SDS011;50104;52.002;4.688;2023-10-31T04:16:46;5.85;;;0.88;;
47545;SDS011;50104;52.002;4.688;2023-10-31T04:21:46;1.73;;;0.90;;
47545;SDS011;50104;52.002;4.688;2023-10-31T04:26:47;2.70;;;0.93;;
47545;SDS011;50104;52.002;4.688;2023-10-31T04:31:48;3.03;;;0.75;;
47545;SDS011;50104;52.002;4.688;2023-10-31T04:36:49;1.52;;;0.93;;
47545;SDS011;50104;52.002;4.688;2023-10-31T04:41:50;3.00;;;0.70;;
47545;SDS011;50104;52.002;4.688;2023-10-31T04:46:50;3.80;;;1.02;;
47545;SDS011;50104;52.002;4.688;2023-10-31T04:51:51;2.38;;;1.27;;
47545;SDS011;50104;52.002;4.688;2023-10-31T04:56:52;4.75;;;2.20;;
47545;SDS011;50104;52.002;4.688;2023-10-31T05:01:53;4.75;;;2.90;;
47545;SDS011;50104;52.002;4.688;2023-10-31T05:06:55;5.82;;;2.60;;
47545;SDS011;50104;52.002;4.688;2023-10-31T05:11:56;4.88;;;2.97;;
47545;SDS011;50104;52.002;4.688;2023-10-31T05:16:57;4.65;;;2.88;;
47545;SDS011;50104;52.002;4.688;2023-10-31T05:21:57;3.13;;;1.73;;
47545;SDS011;50104;52.002;4.688;2023-10-31T05:26:58;1.67;;;1.48;;
47545;SDS011;50104;52.002;4.688;2023-10-31T05:31:59;1.48;;;1.13;;
47545;SDS011;50104;52.002;4.688;2023-10-31T05:37:01;3.45;;;1.08;;
47545;SDS011;50104;52.002;4.688;2023-10-31T05:42:02;6.47;;;1.42;;
47545;SDS011;50104;52.002;4.688;2023-10-31T05:47:03;7.85;;;1.30;;
47545;SDS011;50104;52.002;4.688;2023-10-31T05:52:04;3.75;;;0.90;;
47545;SDS011;50104;52.002;4.688;2023-10-31T05:57:05;3.10;;;0.90;;
47545;SDS011;50104;52.002;4.688;2023-10-31T06:02:06;0.95;;;0.82;;
47545;SDS011;50104;52.002;4.688;2023-10-31T06:07:07;3.33;;;1.20;;
47545;SDS011;50104;52.002;4.688;2023-10-31T06:12:08;3.95;;;1.60;;
47545;SDS011;50104;52.002;4.688;2023-10-31T06:17:09;2.17;;;1.20;;
47545;SDS011;50104;52.002;4.688;2023-10-31T06:22:10;3.95;;;1.20;;
47545;SDS011;50104;52.002;4.688;2023-10-31T06:27:12;1.08;;;0.90;;
47545;SDS011;50104;52.002;4.688;2023-10-31T06:32:14;5.75;;;1.10;;
47545;SDS011;50104;52.002;4.688;2023-10-31T06:37:14;0.80;;;0.80;;
47545;SDS011;50104;52.002;4.688;2023-10-31T06:42:15;2.05;;;1.10;;
47545;SDS011;50104;52.002;4.688;2023-10-31T06:47:16;5.32;;;1.30;;
47545;SDS011;50104;52.002;4.688;2023-10-31T06:52:17;1.90;;;1.20;;
47545;SDS011;50104;52.002;4.688;2023-10-31T06:57:18;2.38;;;1.20;;
47545;SDS011;50104;52.002;4.688;2023-10-31T07:02:18;2.00;;;1.00;;
47545;SDS011;50104;52.002;4.688;2023-10-31T07:07:19;2.60;;;1.27;;
47545;SDS011;50104;52.002;4.688;2023-10-31T07:12:20;2.50;;;1.38;;
47545;SDS011;50104;52.002;4.688;2023-10-31T07:17:21;1.92;;;1.60;;
47545;SDS011;50104;52.002;4.688;2023-10-31T07:22:22;6.97;;;2.13;;
47545;SDS011;50104;52.002;4.688;2023-10-31T07:27:24;4.78;;;2.40;;
47545;SDS011;50104;52.002;4.688;2023-10-31T07:32:25;9.50;;;2.80;;
47545;SDS011;50104;52.002;4.688;2023-10-31T07:37:26;12.60;;;3.70;;
47545;SDS011;50104;52.002;4.688;2023-10-31T07:42:27;4.55;;;2.88;;
47545;SDS011;50104;52.002;4.688;2023-10-31T07:47:28;11.57;;;2.88;;
47545;SDS011;50104;52.002;4.688;2023-10-31T07:52:29;11.13;;;2.78;;
47545;SDS011;50104;52.002;4.688;2023-10-31T07:57:30;7.25;;;2.95;;
47545;SDS011;50104;52.002;4.688;2023-10-31T08:02:30;6.53;;;3.45;;
47545;SDS011;50104;52.002;4.688;2023-10-31T08:07:31;7.10;;;4.15;;
47545;SDS011;50104;52.002;4.688;2023-10-31T08:12:32;6.97;;;4.20;;
47545;SDS011;50104;52.002;4.688;2023-10-31T08:17:33;9.88;;;4.93;;
47545;SDS011;50104;52.002;4.688;2023-10-31T08:22:35;9.38;;;4.55;;
47545;SDS011;50104;52.002;4.688;2023-10-31T08:27:37;11.23;;;5.95;;
47545;SDS011;50104;52.002;4.688;2023-10-31T08:32:38;14.82;;;7.13;;
47545;SDS011;50104;52.002;4.688;2023-10-31T08:37:38;15.27;;;7.43;;
47545;SDS011;50104;52.002;4.688;2023-10-31T08:42:39;20.65;;;9.07;;
47545;SDS011;50104;52.002;4.688;2023-10-31T08:47:41;24.13;;;8.95;;
47545;SDS011;50104;52.002;4.688;2023-10-31T08:52:42;20.23;;;9.55;;
47545;SDS011;50104;52.002;4.688;2023-10-31T08:57:43;22.23;;;10.65;;
47545;SDS011;50104;52.002;4.688;2023-10-31T09:02:44;31.70;;;12.02;;
47545;SDS011;50104;52.002;4.688;2023-10-31T09:07:45;27.70;;;11.77;;
47545;SDS011;50104;52.002;4.688;2023-10-31T09:12:46;22.70;;;10.25;;
47545;SDS011;50104;52.002;4.688;2023-10-31T09:17:47;22.73;;;10.07;;
47545;SDS011;50104;52.002;4.688;2023-10-31T09:22:48;24.02;;;9.02;;
47545;SDS011;50104;52.002;4.688;2023-10-31T09:27:48;17.30;;;8.88;;
47545;SDS011;50104;52.002;4.688;2023-10-31T09:32:49;9.48;;;6.43;;
47545;SDS011;50104;52.002;4.688;2023-10-31T09:37:51;11.68;;;5.93;;
47545;SDS011;50104;52.002;4.688;2023-10-31T09:42:52;11.57;;;3.80;;
47545;SDS011;50104;52.002;4.688;2023-10-31T09:47:53;9.40;;;3.05;;
47545;SDS011;50104;52.002;4.688;2023-10-31T09:52:54;7.32;;;2.72;;
47545;SDS011;50104;52.002;4.688;2023-10-31T09:57:56;7.82;;;2.70;;
47545;SDS011;50104;52.002;4.688;2023-10-31T10:02:57;7.15;;;3.53;;
47545;SDS011;50104;52.002;4.688;2023-10-31T10:07:59;7.97;;;2.63;;
47545;SDS011;50104;52.002;4.688;2023-10-31T10:13:00;13.43;;;4.05;;
47545;SDS011;50104;52.002;4.688;2023-10-31T10:18:03;9.95;;;3.42;;
47545;SDS011;50104;52.002;4.688;2023-10-31T10:23:04;15.63;;;4.80;;
47545;SDS011;50104;52.002;4.688;2023-10-31T10:28:05;11.63;;;3.95;;
47545;SDS011;50104;52.002;4.688;2023-10-31T10:33:06;11.23;;;5.05;;
47545;SDS011;50104;52.002;4.688;2023-10-31T10:38:12;7.60;;;3.50;;
47545;SDS011;50104;52.002;4.688;2023-10-31T10:43:24;11.77;;;4.88;;
47545;SDS011;50104;52.002;4.688;2023-10-31T10:48:26;9.02;;;4.15;;
47545;SDS011;50104;52.002;4.688;2023-10-31T10:53:29;11.15;;;4.78;;
47545;SDS011;50104;52.002;4.688;2023-10-31T10:58:41;6.90;;;4.30;;
47545;SDS011;50104;52.002;4.688;2023-10-31T11:03:55;11.27;;;7.40;;
47545;SDS011;50104;52.002;4.688;2023-10-31T11:08:56;17.98;;;12.75;;
47545;SDS011;50104;52.002;4.688;2023-10-31T11:13:58;25.42;;;15.65;;
47545;SDS011;50104;52.002;4.688;2023-10-31T11:19:02;22.42;;;15.32;;
47545;SDS011;50104;52.002;4.688;2023-10-31T11:24:03;33.60;;;17.80;;
47545;SDS011;50104;52.002;4.688;2023-10-31T11:29:05;27.85;;;17.88;;
47545;SDS011;50104;52.002;4.688;2023-10-31T11:34:06;33.75;;;17.33;;
47545;SDS011;50104;52.002;4.688;2023-10-31T11:39:11;34.78;;;20.23;;
47545;SDS011;50104;52.002;4.688;2023-10-31T11:44:18;34.05;;;19.95;;
47545;SDS011;50104;52.002;4.688;2023-10-31T11:54:48;22.42;;;14.07;;
47545;SDS011;50104;52.002;4.688;2023-10-31T11:59:49;22.83;;;13.48;;
47545;SDS011;50104;52.002;4.688;2023-10-31T12:04:49;20.30;;;13.05;;
47545;SDS011;50104;52.002;4.688;2023-10-31T12:09:50;21.13;;;12.82;;
47545;SDS011;50104;52.002;4.688;2023-10-31T12:14:51;21.60;;;13.05;;
47545;SDS011;50104;52.002;4.688;2023-10-31T12:20:08;18.17;;;11.70;;
47545;SDS011;50104;52.002;4.688;2023-10-31T12:25:11;20.38;;;11.45;;
47545;SDS011;50104;52.002;4.688;2023-10-31T12:30:16;22.08;;;11.60;;
47545;SDS011;50104;52.002;4.688;2023-10-31T12:35:20;15.45;;;10.20;;
47545;SDS011;50104;52.002;4.688;2023-10-31T12:40:22;18.67;;;11.65;;
47545;SDS011;50104;52.002;4.688;2023-10-31T12:45:25;19.60;;;11.82;;
47545;SDS011;50104;52.002;4.688;2023-10-31T12:50:27;16.67;;;11.27;;
47545;SDS011;50104;52.002;4.688;2023-10-31T12:55:28;13.95;;;10.98;;
47545;SDS011;50104;52.002;4.688;2023-10-31T13:00:33;16.90;;;11.88;;
47545;SDS011;50104;52.002;4.688;2023-10-31T13:05:36;13.23;;;11.33;;
47545;SDS011;50104;52.002;4.688;2023-10-31T13:10:40;19.05;;;12.45;;
47545;SDS011;50104;52.002;4.688;2023-10-31T13:15:40;18.70;;;14.98;;
47545;SDS011;50104;52.002;4.688;2023-10-31T13:20:41;25.15;;;16.27;;
47545;SDS011;50104;52.002;4.688;2023-10-31T13:25:42;30.50;;;21.70;;
47545;SDS011;50104;52.002;4.688;2023-10-31T13:30:43;31.10;;;21.52;;
47545;SDS011;50104;52.002;4.688;2023-10-31T13:35:46;35.03;;;21.17;;
47545;SDS011;50104;52.002;4.688;2023-10-31T13:40:47;32.35;;;21.92;;
47545;SDS011;50104;52.002;4.688;2023-10-31T13:45:48;28.48;;;20.40;;
47545;SDS011;50104;52.002;4.688;2023-10-31T13:50:48;27.25;;;18.63;;
47545;SDS011;50104;52.002;4.688;2023-10-31T13:55:50;26.38;;;17.42;;
47545;SDS011;50104;52.002;4.688;2023-10-31T14:00:51;20.83;;;14.88;;
47545;SDS011;50104;52.002;4.688;2023-10-31T14:05:51;18.70;;;14.35;;
47545;SDS011;50104;52.002;4.688;2023-10-31T14:10:53;22.75;;;12.68;;
47545;SDS011;50104;52.002;4.688;2023-10-31T14:15:54;17.65;;;12.40;;
47545;SDS011;50104;52.002;4.688;2023-10-31T14:20:55;9.95;;;8.20;;
47545;SDS011;50104;52.002;4.688;2023-10-31T14:25:56;9.68;;;7.38;;
47545;SDS011;50104;52.002;4.688;2023-10-31T14:30:57;11.95;;;7.97;;
47545;SDS011;50104;52.002;4.688;2023-10-31T14:35:58;13.43;;;7.90;;
47545;SDS011;50104;52.002;4.688;2023-10-31T14:40:59;13.13;;;7.57;;
47545;SDS011;50104;52.002;4.688;2023-10-31T14:45:59;14.13;;;8.00;;
47545;SDS011;50104;52.002;4.688;2023-10-31T14:51:01;12.57;;;8.25;;
47545;SDS011;50104;52.002;4.688;2023-10-31T14:56:02;13.32;;;7.53;;
47545;SDS011;50104;52.002;4.688;2023-10-31T15:01:06;13.05;;;8.07;;
47545;SDS011;50104;52.002;4.688;2023-10-31T15:06:06;13.98;;;8.18;;
47545;SDS011;50104;52.002;4.688;2023-10-31T15:11:07;11.68;;;7.90;;
47545;SDS011;50104;52.002;4.688;2023-10-31T15:16:08;16.55;;;8.23;;
47545;SDS011;50104;52.002;4.688;2023-10-31T15:21:09;12.30;;;6.75;;
47545;SDS011;50104;52.002;4.688;2023-10-31T15:26:10;9.85;;;6.35;;
47545;SDS011;50104;52.002;4.688;2023-10-31T15:31:13;7.90;;;6.88;;
47545;SDS011;50104;52.002;4.688;2023-10-31T15:36:14;7.47;;;6.75;;
47545;SDS011;50104;52.002;4.688;2023-10-31T15:41:14;7.32;;;5.70;;
47545;SDS011;50104;52.002;4.688;2023-10-31T15:46:15;7.07;;;5.68;;
47545;SDS011;50104;52.002;4.688;2023-10-31T15:51:16;9.25;;;6.30;;
47545;SDS011;50104;52.002;4.688;2023-10-31T15:56:17;7.50;;;5.82;;
47545;SDS011;50104;52.002;4.688;2023-10-31T16:01:18;8.43;;;6.38;;
47545;SDS011;50104;52.002;4.688;2023-10-31T16:06:19;6.43;;;5.55;;
47545;SDS011;50104;52.002;4.688;2023-10-31T16:11:19;7.50;;;5.93;;
47545;SDS011;50104;52.002;4.688;2023-10-31T16:16:20;10.75;;;8.07;;
47545;SDS011;50104;52.002;4.688;2023-10-31T16:21:22;8.90;;;6.68;;
47545;SDS011;50104;52.002;4.688;2023-10-31T16:26:22;10.82;;;8.13;;
47545;SDS011;50104;52.002;4.688;2023-10-31T16:31:24;9.50;;;7.40;;
47545;SDS011;50104;52.002;4.688;2023-10-31T16:36:25;13.43;;;8.10;;
47545;SDS011;50104;52.002;4.688;2023-10-31T16:41:26;10.23;;;7.70;;
47545;SDS011;50104;52.002;4.688;2023-10-31T16:46:27;12.70;;;8.80;;
47545;SDS011;50104;52.002;4.688;2023-10-31T16:51:28;13.70;;;9.38;;
47545;SDS011;50104;52.002;4.688;2023-10-31T16:56:30;12.48;;;9.43;;
47545;SDS011;50104;52.002;4.688;2023-10-31T17:01:31;18.08;;;10.35;;
47545;SDS011;50104;52.002;4.688;2023-10-31T17:06:33;16.20;;;10.02;;
47545;SDS011;50104;52.002;4.688;2023-10-31T17:11:35;11.68;;;9.65;;
47545;SDS011;50104;52.002;4.688;2023-10-31T17:16:38;17.10;;;10.93;;
47545;SDS011;50104;52.002;4.688;2023-10-31T17:21:39;13.73;;;10.40;;
47545;SDS011;50104;52.002;4.688;2023-10-31T17:26:40;20.50;;;11.50;;
47545;SDS011;50104;52.002;4.688;2023-10-31T17:31:41;16.33;;;10.52;;
47545;SDS011;50104;52.002;4.688;2023-10-31T17:36:41;16.98;;;10.95;;
47545;SDS011;50104;52.002;4.688;2023-10-31T17:41:43;15.85;;;11.73;;
47545;SDS011;50104;52.002;4.688;2023-10-31T17:46:44;15.32;;;10.65;;
47545;SDS011;50104;52.002;4.688;2023-10-31T17:51:45;14.88;;;11.10;;
47545;SDS011;50104;52.002;4.688;2023-10-31T17:56:46;17.40;;;11.98;;
47545;SDS011;50104;52.002;4.688;2023-10-31T18:01:49;17.27;;;11.50;;
47545;SDS011;50104;52.002;4.688;2023-10-31T18:06:52;15.20;;;10.38;;
47545;SDS011;50104;52.002;4.688;2023-10-31T18:11:53;16.63;;;10.90;;
47545;SDS011;50104;52.002;4.688;2023-10-31T18:16:53;16.80;;;12.57;;
47545;SDS011;50104;52.002;4.688;2023-10-31T18:21:54;17.42;;;11.10;;
47545;SDS011;50104;52.002;4.688;2023-10-31T18:26:57;15.57;;;10.65;;
47545;SDS011;50104;52.002;4.688;2023-10-31T18:31:58;15.50;;;10.77;;
47545;SDS011;50104;52.002;4.688;2023-10-31T18:36:59;13.73;;;10.80;;
47545;SDS011;50104;52.002;4.688;2023-10-31T18:42:00;16.65;;;11.10;;
47545;SDS011;50104;52.002;4.688;2023-10-31T18:47:02;17.10;;;11.70;;
47545;SDS011;50104;52.002;4.688;2023-10-31T18:52:03;17.83;;;13.63;;
47545;SDS011;50104;52.002;4.688;2023-10-31T18:57:04;21.73;;;12.80;;
47545;SDS011;50104;52.002;4.688;2023-10-31T19:02:06;19.15;;;12.77;;
47545;SDS011;50104;52.002;4.688;2023-10-31T19:07:07;19.70;;;12.75;;
47545;SDS011;50104;52.002;4.688;2023-10-31T19:12:07;17.73;;;12.07;;
47545;SDS011;50104;52.002;4.688;2023-10-31T19:17:08;17.00;;;13.10;;
47545;SDS011;50104;52.002;4.688;2023-10-31T19:22:09;18.05;;;12.73;;
47545;SDS011;50104;52.002;4.688;2023-10-31T19:27:13;19.83;;;13.70;;
47545;SDS011;50104;52.002;4.688;2023-10-31T19:32:14;21.77;;;12.60;;
47545;SDS011;50104;52.002;4.688;2023-10-31T19:37:16;14.18;;;10.65;;
47545;SDS011;50104;52.002;4.688;2023-10-31T19:42:16;11.25;;;8.52;;
47545;SDS011;50104;52.002;4.688;2023-10-31T19:47:18;11.38;;;5.90;;
47545;SDS011;50104;52.002;4.688;2023-10-31T19:52:19;12.13;;;7.28;;
47545;SDS011;50104;52.002;4.688;2023-10-31T19:57:19;10.95;;;7.10;;
47545;SDS011;50104;52.002;4.688;2023-10-31T20:02:22;12.73;;;9.40;;
47545;SDS011;50104;52.002;4.688;2023-10-31T20:07:23;17.77;;;10.48;;
47545;SDS011;50104;52.002;4.688;2023-10-31T20:12:23;21.17;;;11.38;;
47545;SDS011;50104;52.002;4.688;2023-10-31T20:17:24;20.50;;;12.13;;
47545;SDS011;50104;52.002;4.688;2023-10-31T20:22:26;21.58;;;12.75;;
47545;SDS011;50104;52.002;4.688;2023-10-31T20:27:27;20.85;;;12.32;;
47545;SDS011;50104;52.002;4.688;2023-10-31T20:32:28;21.70;;;13.10;;
47545;SDS011;50104;52.002;4.688;2023-10-31T20:37:29;19.05;;;12.55;;
47545;SDS011;50104;52.002;4.688;2023-10-31T20:42:30;20.35;;;12.38;;
47545;SDS011;50104;52.002;4.688;2023-10-31T20:47:33;18.90;;;11.98;;
47545;SDS011;50104;52.002;4.688;2023-10-31T20:52:35;25.50;;;12.75;;
47545;SDS011;50104;52.002;4.688;2023-10-31T20:57:36;21.65;;;13.60;;
47545;SDS011;50104;52.002;4.688;2023-10-31T21:02:37;20.55;;;12.85;;
47545;SDS011;50104;52.002;4.688;2023-10-31T21:07:38;20.85;;;12.60;;
47545;SDS011;50104;52.002;4.688;2023-10-31T21:12:39;17.30;;;12.25;;
47545;SDS011;50104;52.002;4.688;2023-10-31T21:17:40;30.02;;;12.52;;
47545;SDS011;50104;52.002;4.688;2023-10-31T21:22:41;24.65;;;12.73;;
47545;SDS011;50104;52.002;4.688;2023-10-31T21:27:43;8.40;;;4.60;;
47545;SDS011;50104;52.002;4.688;2023-10-31T21:33:07;10.60;;;5.07;;
47545;SDS011;50104;52.002;4.688;2023-10-31T21:38:08;5.43;;;2.60;;
47545;SDS011;50104;52.002;4.688;2023-10-31T21:43:10;5.78;;;2.65;;
47545;SDS011;50104;52.002;4.688;2023-10-31T21:48:11;9.27;;;2.67;;
47545;SDS011;50104;52.002;4.688;2023-10-31T21:53:11;6.28;;;3.33;;
47545;SDS011;50104;52.002;4.688;2023-10-31T21:58:12;6.00;;;2.30;;
47545;SDS011;50104;52.002;4.688;2023-10-31T22:03:13;6.43;;;2.50;;
47545;SDS011;50104;52.002;4.688;2023-10-31T22:08:14;12.00;;;3.88;;
47545;SDS011;50104;52.002;4.688;2023-10-31T22:13:14;11.70;;;3.90;;
47545;SDS011;50104;52.002;4.688;2023-10-31T22:18:15;14.18;;;5.13;;
47545;SDS011;50104;52.002;4.688;2023-10-31T22:23:16;10.60;;;4.13;;
47545;SDS011;50104;52.002;4.688;2023-10-31T22:28:17;13.80;;;3.90;;
47545;SDS011;50104;52.002;4.688;2023-10-31T22:33:18;9.45;;;4.03;;
47545;SDS011;50104;52.002;4.688;2023-10-31T22:38:18;10.88;;;4.13;;
47545;SDS011;50104;52.002;4.688;2023-10-31T22:43:19;9.98;;;3.97;;
47545;SDS011;50104;52.002;4.688;2023-10-31T22:48:20;7.75;;;3.08;;
47545;SDS011;50104;52.002;4.688;2023-10-31T22:53:21;11.23;;;3.40;;
47545;SDS011;50104;52.002;4.688;2023-10-31T22:58:22;11.95;;;2.88;;
47545;SDS011;50104;52.002;4.688;2023-10-31T23:03:23;12.90;;;3.05;;
47545;SDS011;50104;52.002;4.688;2023-10-31T23:08:23;10.80;;;3.33;;
47545;SDS011;50104;52.002;4.688;2023-10-31T23:18:56;9.05;;;2.97;;
